sensor_id;sensor_type;location;lat;lon;timestamp;P1;durP1;ratioP1;P2;durP2;ratioP2
78856;SDS011;68207;50.078;19.936;2023-03-14T00:01:20;2.30;;;1.60;;
78856;SDS011;68207;50.078;19.936;2023-03-14T00:03:45;3.40;;;1.70;;
78856;SDS011;68207;50.078;19.936;2023-03-14T00:06:11;2.60;;;1.60;;
78856;SDS011;68207;50.078;19.936;2023-03-14T00:08:37;3.20;;;1.80;;
78856;SDS011;68207;50.078;19.936;2023-03-14T00:11:13;3.50;;;2.20;;
78856;SDS011;68207;50.078;19.936;2023-03-14T00:13:41;3.20;;;1.80;;
78856;SDS011;68207;50.078;19.936;2023-03-14T00:16:07;3.10;;;1.90;;
78856;SDS011;68207;50.078;19.936;2023-03-14T00:18:35;3.80;;;2.00;;
78856;SDS011;68207;50.078;19.936;2023-03-14T00:21:02;4.10;;;2.00;;
78856;SDS011;68207;50.078;19.936;2023-03-14T00:23:29;3.50;;;2.00;;
78856;SDS011;68207;50.078;19.936;2023-03-14T00:25:59;2.70;;;1.80;;
78856;SDS011;68207;50.078;19.936;2023-03-14T00:28:26;3.20;;;1.90;;
78856;SDS011;68207;50.078;19.936;2023-03-14T00:30:53;2.90;;;1.80;;
78856;SDS011;68207;50.078;19.936;2023-03-14T00:33:18;3.20;;;1.60;;
78856;SDS011;68207;50.078;19.936;2023-03-14T00:35:51;2.20;;;1.50;;
78856;SDS011;68207;50.078;19.936;2023-03-14T00:38:21;4.00;;;2.10;;
78856;SDS011;68207;50.078;19.936;2023-03-14T00:40:46;2.60;;;1.70;;
78856;SDS011;68207;50.078;19.936;2023-03-14T00:43:11;2.20;;;1.70;;
78856;SDS011;68207;50.078;19.936;2023-03-14T00:45:37;2.80;;;1.50;;
78856;SDS011;68207;50.078;19.936;2023-03-14T00:48:02;2.10;;;1.60;;
78856;SDS011;68207;50.078;19.936;2023-03-14T00:50:27;3.70;;;1.80;;
78856;SDS011;68207;50.078;19.936;2023-03-14T00:52:53;2.70;;;1.50;;
78856;SDS011;68207;50.078;19.936;2023-03-14T00:55:18;2.70;;;1.70;;
78856;SDS011;68207;50.078;19.936;2023-03-14T00:57:43;4.10;;;1.60;;
78856;SDS011;68207;50.078;19.936;2023-03-14T01:00:09;3.10;;;2.20;;
78856;SDS011;68207;50.078;19.936;2023-03-14T01:02:37;3.10;;;2.20;;
78856;SDS011;68207;50.078;19.936;2023-03-14T01:05:02;3.90;;;2.00;;
78856;SDS011;68207;50.078;19.936;2023-03-14T01:07:28;2.40;;;1.70;;
78856;SDS011;68207;50.078;19.936;2023-03-14T01:09:54;3.40;;;1.90;;
78856;SDS011;68207;50.078;19.936;2023-03-14T01:12:19;2.50;;;1.60;;
78856;SDS011;68207;50.078;19.936;2023-03-14T01:14:44;2.00;;;1.70;;
78856;SDS011;68207;50.078;19.936;2023-03-14T01:17:10;2.90;;;1.70;;
78856;SDS011;68207;50.078;19.936;2023-03-14T01:19:35;3.30;;;2.10;;
78856;SDS011;68207;50.078;19.936;2023-03-14T01:22:00;3.60;;;1.60;;
78856;SDS011;68207;50.078;19.936;2023-03-14T01:24:26;2.40;;;1.90;;
78856;SDS011;68207;50.078;19.936;2023-03-14T01:26:51;2.90;;;1.80;;
78856;SDS011;68207;50.078;19.936;2023-03-14T01:29:16;2.60;;;1.80;;
78856;SDS011;68207;50.078;19.936;2023-03-14T01:31:42;3.00;;;1.80;;
78856;SDS011;68207;50.078;19.936;2023-03-14T01:34:07;3.00;;;2.20;;
78856;SDS011;68207;50.078;19.936;2023-03-14T01:36:32;4.10;;;2.00;;
78856;SDS011;68207;50.078;19.936;2023-03-14T01:38:58;2.20;;;1.80;;
78856;SDS011;68207;50.078;19.936;2023-03-14T01:41:24;3.20;;;1.60;;
78856;SDS011;68207;50.078;19.936;2023-03-14T01:43:50;3.60;;;1.70;;
78856;SDS011;68207;50.078;19.936;2023-03-14T01:51:25;2.90;;;2.00;;
78856;SDS011;68207;50.078;19.936;2023-03-14T01:53:57;3.50;;;2.00;;
78856;SDS011;68207;50.078;19.936;2023-03-14T01:56:27;5.10;;;2.00;;
78856;SDS011;68207;50.078;19.936;2023-03-14T01:58:53;4.20;;;2.10;;
78856;SDS011;68207;50.078;19.936;2023-03-14T02:01:20;3.90;;;2.20;;
78856;SDS011;68207;50.078;19.936;2023-03-14T02:03:50;3.60;;;1.90;;
78856;SDS011;68207;50.078;19.936;2023-03-14T02:06:21;2.80;;;1.80;;
78856;SDS011;68207;50.078;19.936;2023-03-14T02:08:49;4.60;;;2.10;;
78856;SDS011;68207;50.078;19.936;2023-03-14T02:11:16;4.70;;;2.20;;
78856;SDS011;68207;50.078;19.936;2023-03-14T02:13:42;3.10;;;2.00;;
78856;SDS011;68207;50.078;19.936;2023-03-14T02:16:08;2.90;;;1.80;;
78856;SDS011;68207;50.078;19.936;2023-03-14T02:18:34;3.30;;;1.80;;
78856;SDS011;68207;50.078;19.936;2023-03-14T02:21:05;3.60;;;2.30;;
78856;SDS011;68207;50.078;19.936;2023-03-14T02:26:34;4.40;;;2.00;;
78856;SDS011;68207;50.078;19.936;2023-03-14T02:29:05;2.70;;;1.70;;
78856;SDS011;68207;50.078;19.936;2023-03-14T02:31:31;3.20;;;2.10;;
78856;SDS011;68207;50.078;19.936;2023-03-14T02:33:57;3.60;;;2.30;;
78856;SDS011;68207;50.078;19.936;2023-03-14T02:36:24;3.60;;;2.30;;
78856;SDS011;68207;50.078;19.936;2023-03-14T02:38:52;4.60;;;2.30;;
78856;SDS011;68207;50.078;19.936;2023-03-14T02:41:23;2.40;;;1.80;;
78856;SDS011;68207;50.078;19.936;2023-03-14T02:43:48;4.40;;;2.80;;
78856;SDS011;68207;50.078;19.936;2023-03-14T02:46:16;4.30;;;2.10;;
78856;SDS011;68207;50.078;19.936;2023-03-14T02:48:48;4.00;;;2.10;;
78856;SDS011;68207;50.078;19.936;2023-03-14T02:51:17;4.40;;;2.00;;
78856;SDS011;68207;50.078;19.936;2023-03-14T02:53:43;3.80;;;2.50;;
78856;SDS011;68207;50.078;19.936;2023-03-14T02:56:08;4.30;;;1.80;;
78856;SDS011;68207;50.078;19.936;2023-03-14T02:58:34;3.10;;;2.00;;
78856;SDS011;68207;50.078;19.936;2023-03-14T03:00:59;5.40;;;2.40;;
78856;SDS011;68207;50.078;19.936;2023-03-14T03:03:25;4.10;;;2.00;;
78856;SDS011;68207;50.078;19.936;2023-03-14T03:05:51;3.50;;;2.10;;
78856;SDS011;68207;50.078;19.936;2023-03-14T03:08:18;4.10;;;2.30;;
78856;SDS011;68207;50.078;19.936;2023-03-14T03:10:45;4.80;;;2.40;;
78856;SDS011;68207;50.078;19.936;2023-03-14T03:13:10;5.30;;;2.40;;
78856;SDS011;68207;50.078;19.936;2023-03-14T03:15:36;4.50;;;2.50;;
78856;SDS011;68207;50.078;19.936;2023-03-14T03:18:01;3.20;;;2.10;;
78856;SDS011;68207;50.078;19.936;2023-03-14T03:20:27;2.60;;;2.10;;
78856;SDS011;68207;50.078;19.936;2023-03-14T03:22:53;3.90;;;2.20;;
78856;SDS011;68207;50.078;19.936;2023-03-14T03:25:18;4.10;;;2.10;;
78856;SDS011;68207;50.078;19.936;2023-03-14T03:27:43;4.60;;;2.30;;
78856;SDS011;68207;50.078;19.936;2023-03-14T03:30:09;3.10;;;2.00;;
78856;SDS011;68207;50.078;19.936;2023-03-14T03:32:35;4.30;;;2.10;;
78856;SDS011;68207;50.078;19.936;2023-03-14T03:35:02;2.60;;;1.80;;
78856;SDS011;68207;50.078;19.936;2023-03-14T03:37:32;3.20;;;2.20;;
78856;SDS011;68207;50.078;19.936;2023-03-14T03:39:58;6.70;;;2.00;;
78856;SDS011;68207;50.078;19.936;2023-03-14T03:42:23;3.00;;;2.20;;
78856;SDS011;68207;50.078;19.936;2023-03-14T03:44:50;3.20;;;2.20;;
78856;SDS011;68207;50.078;19.936;2023-03-14T03:47:16;3.90;;;2.60;;
78856;SDS011;68207;50.078;19.936;2023-03-14T03:49:41;5.80;;;2.60;;
78856;SDS011;68207;50.078;19.936;2023-03-14T03:52:06;4.90;;;2.40;;
78856;SDS011;68207;50.078;19.936;2023-03-14T03:54:32;3.50;;;2.50;;
78856;SDS011;68207;50.078;19.936;2023-03-14T03:56:57;4.70;;;2.50;;
78856;SDS011;68207;50.078;19.936;2023-03-14T03:59:23;3.70;;;2.60;;
78856;SDS011;68207;50.078;19.936;2023-03-14T04:01:48;3.80;;;2.50;;
78856;SDS011;68207;50.078;19.936;2023-03-14T04:04:13;3.90;;;2.30;;
78856;SDS011;68207;50.078;19.936;2023-03-14T04:06:39;4.30;;;2.30;;
78856;SDS011;68207;50.078;19.936;2023-03-14T04:09:06;4.60;;;2.50;;
78856;SDS011;68207;50.078;19.936;2023-03-14T04:11:32;4.00;;;2.50;;
78856;SDS011;68207;50.078;19.936;2023-03-14T04:13:57;4.30;;;2.40;;
78856;SDS011;68207;50.078;19.936;2023-03-14T04:16:23;4.70;;;3.20;;
78856;SDS011;68207;50.078;19.936;2023-03-14T04:18:50;5.30;;;2.50;;
78856;SDS011;68207;50.078;19.936;2023-03-14T04:21:15;3.20;;;2.20;;
78856;SDS011;68207;50.078;19.936;2023-03-14T04:23:41;4.50;;;2.80;;
78856;SDS011;68207;50.078;19.936;2023-03-14T04:26:07;4.30;;;2.40;;
78856;SDS011;68207;50.078;19.936;2023-03-14T04:28:32;4.10;;;2.40;;
78856;SDS011;68207;50.078;19.936;2023-03-14T04:30:58;5.60;;;2.80;;
78856;SDS011;68207;50.078;19.936;2023-03-14T04:33:24;4.70;;;2.70;;
78856;SDS011;68207;50.078;19.936;2023-03-14T04:35:52;5.40;;;2.50;;
78856;SDS011;68207;50.078;19.936;2023-03-14T04:38:19;3.50;;;2.40;;
78856;SDS011;68207;50.078;19.936;2023-03-14T04:40:44;4.70;;;3.20;;
78856;SDS011;68207;50.078;19.936;2023-03-14T04:43:10;4.40;;;2.40;;
78856;SDS011;68207;50.078;19.936;2023-03-14T04:45:36;6.00;;;2.40;;
78856;SDS011;68207;50.078;19.936;2023-03-14T04:48:02;5.10;;;2.90;;
78856;SDS011;68207;50.078;19.936;2023-03-14T04:50:28;11.00;;;3.30;;
78856;SDS011;68207;50.078;19.936;2023-03-14T04:52:53;5.50;;;3.20;;
78856;SDS011;68207;50.078;19.936;2023-03-14T04:55:18;5.70;;;2.80;;
78856;SDS011;68207;50.078;19.936;2023-03-14T04:57:44;5.10;;;3.10;;
78856;SDS011;68207;50.078;19.936;2023-03-14T05:00:09;5.50;;;3.20;;
78856;SDS011;68207;50.078;19.936;2023-03-14T05:02:35;5.60;;;3.10;;
78856;SDS011;68207;50.078;19.936;2023-03-14T05:05:01;6.40;;;3.20;;
78856;SDS011;68207;50.078;19.936;2023-03-14T05:07:26;6.10;;;3.60;;
78856;SDS011;68207;50.078;19.936;2023-03-14T05:09:51;4.80;;;3.50;;
78856;SDS011;68207;50.078;19.936;2023-03-14T05:12:18;8.20;;;3.60;;
78856;SDS011;68207;50.078;19.936;2023-03-14T05:14:44;5.90;;;3.70;;
78856;SDS011;68207;50.078;19.936;2023-03-14T05:17:09;5.80;;;3.30;;
78856;SDS011;68207;50.078;19.936;2023-03-14T05:19:35;7.30;;;4.40;;
78856;SDS011;68207;50.078;19.936;2023-03-14T05:22:00;8.00;;;3.50;;
78856;SDS011;68207;50.078;19.936;2023-03-14T05:24:26;6.80;;;4.40;;
78856;SDS011;68207;50.078;19.936;2023-03-14T05:26:52;6.00;;;3.60;;
78856;SDS011;68207;50.078;19.936;2023-03-14T05:29:18;13.80;;;5.00;;
78856;SDS011;68207;50.078;19.936;2023-03-14T05:31:43;9.20;;;4.40;;
78856;SDS011;68207;50.078;19.936;2023-03-14T05:34:09;7.70;;;4.00;;
78856;SDS011;68207;50.078;19.936;2023-03-14T05:36:34;6.00;;;3.70;;
78856;SDS011;68207;50.078;19.936;2023-03-14T05:39:00;8.70;;;3.90;;
78856;SDS011;68207;50.078;19.936;2023-03-14T05:41:25;6.00;;;4.00;;
78856;SDS011;68207;50.078;19.936;2023-03-14T05:43:51;6.20;;;3.60;;
78856;SDS011;68207;50.078;19.936;2023-03-14T05:46:16;10.10;;;4.90;;
78856;SDS011;68207;50.078;19.936;2023-03-14T05:48:42;14.20;;;4.60;;
78856;SDS011;68207;50.078;19.936;2023-03-14T05:51:07;8.00;;;4.60;;
78856;SDS011;68207;50.078;19.936;2023-03-14T05:53:33;8.90;;;4.80;;
78856;SDS011;68207;50.078;19.936;2023-03-14T05:55:58;7.80;;;4.10;;
78856;SDS011;68207;50.078;19.936;2023-03-14T05:58:23;10.70;;;4.10;;
78856;SDS011;68207;50.078;19.936;2023-03-14T06:00:49;9.10;;;4.70;;
78856;SDS011;68207;50.078;19.936;2023-03-14T06:03:15;7.70;;;4.50;;
78856;SDS011;68207;50.078;19.936;2023-03-14T06:05:41;10.00;;;5.00;;
78856;SDS011;68207;50.078;19.936;2023-03-14T06:08:06;10.00;;;5.00;;
78856;SDS011;68207;50.078;19.936;2023-03-14T06:10:32;11.20;;;4.70;;
78856;SDS011;68207;50.078;19.936;2023-03-14T06:12:57;9.20;;;4.80;;
78856;SDS011;68207;50.078;19.936;2023-03-14T06:15:22;9.60;;;4.00;;
78856;SDS011;68207;50.078;19.936;2023-03-14T06:17:48;10.80;;;5.20;;
78856;SDS011;68207;50.078;19.936;2023-03-14T06:20:13;7.70;;;4.20;;
78856;SDS011;68207;50.078;19.936;2023-03-14T06:22:39;11.80;;;5.10;;
78856;SDS011;68207;50.078;19.936;2023-03-14T06:25:05;9.30;;;4.60;;
78856;SDS011;68207;50.078;19.936;2023-03-14T06:29:57;7.40;;;4.50;;
78856;SDS011;68207;50.078;19.936;2023-03-14T06:32:22;11.70;;;4.70;;
78856;SDS011;68207;50.078;19.936;2023-03-14T06:34:47;15.10;;;4.70;;
78856;SDS011;68207;50.078;19.936;2023-03-14T06:37:13;11.60;;;4.60;;
78856;SDS011;68207;50.078;19.936;2023-03-14T06:39:38;10.50;;;4.60;;
78856;SDS011;68207;50.078;19.936;2023-03-14T06:42:04;9.40;;;4.80;;
78856;SDS011;68207;50.078;19.936;2023-03-14T06:44:30;9.20;;;4.20;;
78856;SDS011;68207;50.078;19.936;2023-03-14T06:46:55;8.40;;;4.70;;
78856;SDS011;68207;50.078;19.936;2023-03-14T06:49:21;9.30;;;4.90;;
78856;SDS011;68207;50.078;19.936;2023-03-14T06:51:46;9.10;;;4.30;;
78856;SDS011;68207;50.078;19.936;2023-03-14T06:54:11;9.50;;;4.90;;
78856;SDS011;68207;50.078;19.936;2023-03-14T06:56:37;12.00;;;5.60;;
78856;SDS011;68207;50.078;19.936;2023-03-14T06:59:02;10.30;;;5.70;;
78856;SDS011;68207;50.078;19.936;2023-03-14T07:01:29;10.60;;;4.60;;
78856;SDS011;68207;50.078;19.936;2023-03-14T07:03:55;8.50;;;4.20;;
78856;SDS011;68207;50.078;19.936;2023-03-14T07:06:21;11.20;;;4.90;;
78856;SDS011;68207;50.078;19.936;2023-03-14T07:08:47;13.10;;;4.80;;
78856;SDS011;68207;50.078;19.936;2023-03-14T07:11:13;10.90;;;4.40;;
78856;SDS011;68207;50.078;19.936;2023-03-14T07:13:38;10.60;;;4.80;;
78856;SDS011;68207;50.078;19.936;2023-03-14T07:16:04;15.20;;;5.20;;
78856;SDS011;68207;50.078;19.936;2023-03-14T07:18:30;14.20;;;5.10;;
78856;SDS011;68207;50.078;19.936;2023-03-14T07:20:56;19.70;;;4.90;;
78856;SDS011;68207;50.078;19.936;2023-03-14T07:23:21;14.10;;;4.40;;
78856;SDS011;68207;50.078;19.936;2023-03-14T07:25:46;9.70;;;4.10;;
78856;SDS011;68207;50.078;19.936;2023-03-14T07:28:12;11.80;;;4.80;;
78856;SDS011;68207;50.078;19.936;2023-03-14T07:30:37;12.00;;;4.80;;
78856;SDS011;68207;50.078;19.936;2023-03-14T07:33:02;11.60;;;4.70;;
78856;SDS011;68207;50.078;19.936;2023-03-14T07:35:28;11.40;;;4.70;;
78856;SDS011;68207;50.078;19.936;2023-03-14T07:37:53;9.20;;;4.20;;
78856;SDS011;68207;50.078;19.936;2023-03-14T07:40:19;8.20;;;4.00;;
78856;SDS011;68207;50.078;19.936;2023-03-14T07:42:44;7.00;;;3.40;;
78856;SDS011;68207;50.078;19.936;2023-03-14T07:45:09;9.80;;;3.70;;
78856;SDS011;68207;50.078;19.936;2023-03-14T07:47:35;7.90;;;4.10;;
78856;SDS011;68207;50.078;19.936;2023-03-14T07:50:01;7.50;;;4.70;;
78856;SDS011;68207;50.078;19.936;2023-03-14T07:52:27;15.80;;;4.30;;
78856;SDS011;68207;50.078;19.936;2023-03-14T07:54:52;10.00;;;4.80;;
78856;SDS011;68207;50.078;19.936;2023-03-14T07:57:18;9.50;;;3.60;;
78856;SDS011;68207;50.078;19.936;2023-03-14T07:59:43;8.10;;;3.70;;
78856;SDS011;68207;50.078;19.936;2023-03-14T08:02:12;6.90;;;3.50;;
78856;SDS011;68207;50.078;19.936;2023-03-14T08:04:38;4.70;;;3.00;;
78856;SDS011;68207;50.078;19.936;2023-03-14T08:07:04;4.70;;;2.80;;
78856;SDS011;68207;50.078;19.936;2023-03-14T08:09:30;7.20;;;3.30;;
78856;SDS011;68207;50.078;19.936;2023-03-14T08:11:55;6.00;;;3.20;;
78856;SDS011;68207;50.078;19.936;2023-03-14T08:14:21;5.80;;;2.60;;
78856;SDS011;68207;50.078;19.936;2023-03-14T08:16:48;6.50;;;3.10;;
78856;SDS011;68207;50.078;19.936;2023-03-14T08:19:14;5.80;;;3.00;;
78856;SDS011;68207;50.078;19.936;2023-03-14T08:21:40;5.60;;;2.50;;
78856;SDS011;68207;50.078;19.936;2023-03-14T08:24:05;7.60;;;2.90;;
78856;SDS011;68207;50.078;19.936;2023-03-14T08:26:31;5.40;;;2.50;;
78856;SDS011;68207;50.078;19.936;2023-03-14T08:28:56;4.30;;;2.70;;
78856;SDS011;68207;50.078;19.936;2023-03-14T08:31:21;7.40;;;2.80;;
78856;SDS011;68207;50.078;19.936;2023-03-14T08:33:47;4.90;;;2.50;;
78856;SDS011;68207;50.078;19.936;2023-03-14T08:36:12;3.90;;;2.20;;
78856;SDS011;68207;50.078;19.936;2023-03-14T08:38:37;3.70;;;2.30;;
78856;SDS011;68207;50.078;19.936;2023-03-14T08:41:03;4.00;;;2.40;;
78856;SDS011;68207;50.078;19.936;2023-03-14T08:43:29;4.10;;;2.50;;
78856;SDS011;68207;50.078;19.936;2023-03-14T08:45:57;5.10;;;2.40;;
78856;SDS011;68207;50.078;19.936;2023-03-14T08:48:23;4.20;;;2.40;;
78856;SDS011;68207;50.078;19.936;2023-03-14T08:50:48;6.10;;;2.80;;
78856;SDS011;68207;50.078;19.936;2023-03-14T08:53:13;4.50;;;2.40;;
78856;SDS011;68207;50.078;19.936;2023-03-14T08:55:39;4.90;;;2.70;;
78856;SDS011;68207;50.078;19.936;2023-03-14T08:58:04;5.40;;;2.30;;
78856;SDS011;68207;50.078;19.936;2023-03-14T09:00:30;4.40;;;2.40;;
78856;SDS011;68207;50.078;19.936;2023-03-14T09:02:55;6.60;;;2.30;;
78856;SDS011;68207;50.078;19.936;2023-03-14T09:05:20;4.40;;;2.10;;
78856;SDS011;68207;50.078;19.936;2023-03-14T09:07:45;4.50;;;2.80;;
78856;SDS011;68207;50.078;19.936;2023-03-14T09:10:11;4.70;;;2.30;;
78856;SDS011;68207;50.078;19.936;2023-03-14T09:12:36;8.30;;;3.10;;
78856;SDS011;68207;50.078;19.936;2023-03-14T09:15:02;3.40;;;2.20;;
78856;SDS011;68207;50.078;19.936;2023-03-14T09:17:28;8.20;;;2.20;;
78856;SDS011;68207;50.078;19.936;2023-03-14T09:19:53;5.20;;;2.50;;
78856;SDS011;68207;50.078;19.936;2023-03-14T09:22:18;4.10;;;2.40;;
78856;SDS011;68207;50.078;19.936;2023-03-14T09:24:45;5.90;;;2.50;;
78856;SDS011;68207;50.078;19.936;2023-03-14T09:27:11;4.90;;;2.40;;
78856;SDS011;68207;50.078;19.936;2023-03-14T09:29:36;3.70;;;2.10;;
78856;SDS011;68207;50.078;19.936;2023-03-14T09:32:02;3.30;;;2.20;;
78856;SDS011;68207;50.078;19.936;2023-03-14T09:34:28;3.50;;;2.20;;
78856;SDS011;68207;50.078;19.936;2023-03-14T09:36:53;3.60;;;2.40;;
78856;SDS011;68207;50.078;19.936;2023-03-14T09:39:19;8.60;;;3.10;;
78856;SDS011;68207;50.078;19.936;2023-03-14T09:41:45;4.20;;;2.40;;
78856;SDS011;68207;50.078;19.936;2023-03-14T09:44:30;2.90;;;2.10;;
78856;SDS011;68207;50.078;19.936;2023-03-14T09:47:00;4.00;;;2.50;;
78856;SDS011;68207;50.078;19.936;2023-03-14T09:49:33;3.80;;;2.10;;
78856;SDS011;68207;50.078;19.936;2023-03-14T09:52:02;4.60;;;2.50;;
78856;SDS011;68207;50.078;19.936;2023-03-14T09:54:42;5.90;;;2.10;;
78856;SDS011;68207;50.078;19.936;2023-03-14T09:57:17;3.20;;;2.30;;
78856;SDS011;68207;50.078;19.936;2023-03-14T09:59:44;5.50;;;2.60;;
78856;SDS011;68207;50.078;19.936;2023-03-14T10:02:16;4.40;;;2.30;;
78856;SDS011;68207;50.078;19.936;2023-03-14T10:04:51;3.00;;;2.00;;
78856;SDS011;68207;50.078;19.936;2023-03-14T10:07:27;3.80;;;2.40;;
78856;SDS011;68207;50.078;19.936;2023-03-14T10:09:55;4.00;;;2.20;;
78856;SDS011;68207;50.078;19.936;2023-03-14T10:12:30;5.50;;;2.50;;
78856;SDS011;68207;50.078;19.936;2023-03-14T10:14:57;4.40;;;2.50;;
78856;SDS011;68207;50.078;19.936;2023-03-14T10:17:43;6.20;;;2.20;;
78856;SDS011;68207;50.078;19.936;2023-03-14T10:20:29;3.90;;;2.50;;
78856;SDS011;68207;50.078;19.936;2023-03-14T10:23:18;5.50;;;2.20;;
78856;SDS011;68207;50.078;19.936;2023-03-14T10:26:05;6.30;;;2.60;;
78856;SDS011;68207;50.078;19.936;2023-03-14T10:28:45;6.60;;;3.00;;
78856;SDS011;68207;50.078;19.936;2023-03-14T10:31:12;5.20;;;2.80;;
78856;SDS011;68207;50.078;19.936;2023-03-14T10:33:39;4.30;;;2.60;;
78856;SDS011;68207;50.078;19.936;2023-03-14T10:38:39;4.60;;;2.80;;
78856;SDS011;68207;50.078;19.936;2023-03-14T10:41:26;3.70;;;2.50;;
78856;SDS011;68207;50.078;19.936;2023-03-14T10:43:52;6.00;;;2.70;;
78856;SDS011;68207;50.078;19.936;2023-03-14T10:46:21;4.00;;;2.70;;
78856;SDS011;68207;50.078;19.936;2023-03-14T10:48:49;4.90;;;2.40;;
78856;SDS011;68207;50.078;19.936;2023-03-14T10:51:28;3.60;;;2.50;;
78856;SDS011;68207;50.078;19.936;2023-03-14T10:54:01;6.90;;;2.70;;
78856;SDS011;68207;50.078;19.936;2023-03-14T10:56:35;5.30;;;2.70;;
78856;SDS011;68207;50.078;19.936;2023-03-14T10:59:02;6.40;;;2.70;;
78856;SDS011;68207;50.078;19.936;2023-03-14T11:10:10;4.80;;;2.90;;
78856;SDS011;68207;50.078;19.936;2023-03-14T11:15:41;5.40;;;2.70;;
78856;SDS011;68207;50.078;19.936;2023-03-14T11:18:29;4.70;;;2.50;;
78856;SDS011;68207;50.078;19.936;2023-03-14T11:26:53;5.10;;;2.80;;
78856;SDS011;68207;50.078;19.936;2023-03-14T11:35:34;3.80;;;2.20;;
78856;SDS011;68207;50.078;19.936;2023-03-14T11:40:55;4.40;;;2.60;;
78856;SDS011;68207;50.078;19.936;2023-03-14T11:46:09;5.30;;;2.10;;
78856;SDS011;68207;50.078;19.936;2023-03-14T11:51:36;5.00;;;2.50;;
78856;SDS011;68207;50.078;19.936;2023-03-14T11:56:46;4.00;;;2.60;;
78856;SDS011;68207;50.078;19.936;2023-03-14T11:59:24;8.00;;;2.70;;
78856;SDS011;68207;50.078;19.936;2023-03-14T12:01:54;3.30;;;1.80;;
78856;SDS011;68207;50.078;19.936;2023-03-14T12:04:32;5.20;;;3.20;;
78856;SDS011;68207;50.078;19.936;2023-03-14T12:07:12;4.50;;;2.70;;
78856;SDS011;68207;50.078;19.936;2023-03-14T12:09:44;6.90;;;3.10;;
78856;SDS011;68207;50.078;19.936;2023-03-14T12:12:12;9.20;;;3.10;;
78856;SDS011;68207;50.078;19.936;2023-03-14T12:14:44;5.70;;;3.00;;
78856;SDS011;68207;50.078;19.936;2023-03-14T12:17:19;5.10;;;2.90;;
78856;SDS011;68207;50.078;19.936;2023-03-14T12:20:15;5.20;;;3.00;;
78856;SDS011;68207;50.078;19.936;2023-03-14T12:22:44;4.90;;;2.40;;
78856;SDS011;68207;50.078;19.936;2023-03-14T12:25:23;3.40;;;2.30;;
78856;SDS011;68207;50.078;19.936;2023-03-14T12:30:35;4.00;;;2.50;;
78856;SDS011;68207;50.078;19.936;2023-03-14T12:33:12;3.90;;;2.70;;
78856;SDS011;68207;50.078;19.936;2023-03-14T12:35:46;3.40;;;2.50;;
78856;SDS011;68207;50.078;19.936;2023-03-14T12:41:11;4.30;;;2.40;;
78856;SDS011;68207;50.078;19.936;2023-03-14T12:43:41;5.80;;;2.80;;
78856;SDS011;68207;50.078;19.936;2023-03-14T12:51:28;3.60;;;2.50;;
78856;SDS011;68207;50.078;19.936;2023-03-14T12:59:35;6.90;;;3.20;;
78856;SDS011;68207;50.078;19.936;2023-03-14T13:02:19;5.40;;;3.20;;
78856;SDS011;68207;50.078;19.936;2023-03-14T13:04:49;5.40;;;2.90;;
78856;SDS011;68207;50.078;19.936;2023-03-14T13:21:24;8.80;;;3.40;;
78856;SDS011;68207;50.078;19.936;2023-03-14T13:23:56;5.70;;;3.20;;
78856;SDS011;68207;50.078;19.936;2023-03-14T13:26:22;4.80;;;2.90;;
78856;SDS011;68207;50.078;19.936;2023-03-14T13:28:50;6.10;;;3.60;;
78856;SDS011;68207;50.078;19.936;2023-03-14T13:31:25;4.10;;;3.00;;
78856;SDS011;68207;50.078;19.936;2023-03-14T13:34:00;5.10;;;2.80;;
78856;SDS011;68207;50.078;19.936;2023-03-14T13:36:27;5.20;;;3.20;;
78856;SDS011;68207;50.078;19.936;2023-03-14T13:39:00;4.70;;;2.90;;
78856;SDS011;68207;50.078;19.936;2023-03-14T13:41:26;5.00;;;2.70;;
78856;SDS011;68207;50.078;19.936;2023-03-14T13:43:52;7.40;;;2.70;;
78856;SDS011;68207;50.078;19.936;2023-03-14T13:46:25;4.30;;;2.70;;
78856;SDS011;68207;50.078;19.936;2023-03-14T13:49:01;4.90;;;3.20;;
78856;SDS011;68207;50.078;19.936;2023-03-14T13:51:29;4.40;;;2.70;;
78856;SDS011;68207;50.078;19.936;2023-03-14T13:53:59;4.40;;;2.70;;
78856;SDS011;68207;50.078;19.936;2023-03-14T13:56:26;4.00;;;2.60;;
78856;SDS011;68207;50.078;19.936;2023-03-14T13:58:54;4.40;;;2.60;;
78856;SDS011;68207;50.078;19.936;2023-03-14T14:01:24;4.90;;;3.10;;
78856;SDS011;68207;50.078;19.936;2023-03-14T14:03:53;3.60;;;1.90;;
78856;SDS011;68207;50.078;19.936;2023-03-14T14:08:52;3.60;;;2.20;;
78856;SDS011;68207;50.078;19.936;2023-03-14T14:11:30;5.40;;;2.80;;
78856;SDS011;68207;50.078;19.936;2023-03-14T14:14:01;4.70;;;2.40;;
78856;SDS011;68207;50.078;19.936;2023-03-14T14:16:28;4.10;;;2.80;;
78856;SDS011;68207;50.078;19.936;2023-03-14T14:18:55;3.30;;;2.20;;
78856;SDS011;68207;50.078;19.936;2023-03-14T14:21:22;6.70;;;2.70;;
78856;SDS011;68207;50.078;19.936;2023-03-14T14:23:49;4.80;;;2.70;;
78856;SDS011;68207;50.078;19.936;2023-03-14T14:26:18;4.00;;;2.60;;
78856;SDS011;68207;50.078;19.936;2023-03-14T14:28:44;5.90;;;3.20;;
78856;SDS011;68207;50.078;19.936;2023-03-14T14:36:21;8.50;;;2.70;;
78856;SDS011;68207;50.078;19.936;2023-03-14T14:38:53;4.50;;;2.50;;
78856;SDS011;68207;50.078;19.936;2023-03-14T14:41:26;4.40;;;2.60;;
78856;SDS011;68207;50.078;19.936;2023-03-14T14:43:53;4.60;;;2.30;;
78856;SDS011;68207;50.078;19.936;2023-03-14T14:46:20;14.50;;;4.30;;
78856;SDS011;68207;50.078;19.936;2023-03-14T14:48:45;6.40;;;2.90;;
78856;SDS011;68207;50.078;19.936;2023-03-14T14:51:21;4.20;;;2.40;;
78856;SDS011;68207;50.078;19.936;2023-03-14T14:53:49;3.80;;;2.10;;
78856;SDS011;68207;50.078;19.936;2023-03-14T14:56:25;4.10;;;2.70;;
78856;SDS011;68207;50.078;19.936;2023-03-14T14:58:56;3.30;;;2.10;;
78856;SDS011;68207;50.078;19.936;2023-03-14T15:01:30;3.90;;;2.60;;
78856;SDS011;68207;50.078;19.936;2023-03-14T15:03:59;4.50;;;2.90;;
78856;SDS011;68207;50.078;19.936;2023-03-14T15:06:26;4.00;;;2.70;;
78856;SDS011;68207;50.078;19.936;2023-03-14T15:08:54;5.20;;;2.20;;
78856;SDS011;68207;50.078;19.936;2023-03-14T15:11:20;4.00;;;2.20;;
78856;SDS011;68207;50.078;19.936;2023-03-14T15:13:48;3.80;;;2.30;;
78856;SDS011;68207;50.078;19.936;2023-03-14T15:16:15;3.30;;;2.00;;
78856;SDS011;68207;50.078;19.936;2023-03-14T15:18:44;6.30;;;2.80;;
78856;SDS011;68207;50.078;19.936;2023-03-14T15:21:13;4.50;;;2.30;;
78856;SDS011;68207;50.078;19.936;2023-03-14T15:23:38;3.70;;;2.40;;
78856;SDS011;68207;50.078;19.936;2023-03-14T15:26:08;2.50;;;1.40;;
78856;SDS011;68207;50.078;19.936;2023-03-14T15:28:38;6.20;;;2.20;;
78856;SDS011;68207;50.078;19.936;2023-03-14T15:31:03;3.20;;;2.20;;
78856;SDS011;68207;50.078;19.936;2023-03-14T15:33:29;3.60;;;2.00;;
78856;SDS011;68207;50.078;19.936;2023-03-14T15:35:54;4.70;;;2.60;;
78856;SDS011;68207;50.078;19.936;2023-03-14T15:38:21;6.40;;;2.50;;
78856;SDS011;68207;50.078;19.936;2023-03-14T15:40:48;6.10;;;2.30;;
78856;SDS011;68207;50.078;19.936;2023-03-14T15:43:14;5.40;;;2.70;;
78856;SDS011;68207;50.078;19.936;2023-03-14T15:45:40;5.00;;;2.90;;
78856;SDS011;68207;50.078;19.936;2023-03-14T15:48:06;3.10;;;1.80;;
78856;SDS011;68207;50.078;19.936;2023-03-14T15:50:41;4.50;;;2.60;;
78856;SDS011;68207;50.078;19.936;2023-03-14T15:53:07;3.20;;;2.00;;
78856;SDS011;68207;50.078;19.936;2023-03-14T15:55:32;4.30;;;2.40;;
78856;SDS011;68207;50.078;19.936;2023-03-14T15:57:58;4.70;;;2.70;;
78856;SDS011;68207;50.078;19.936;2023-03-14T16:00:24;4.60;;;2.10;;
78856;SDS011;68207;50.078;19.936;2023-03-14T16:02:49;4.30;;;2.50;;